sensor_id;sensor_type;location;lat;lon;timestamp;P1;durP1;ratioP1;P2;durP2;ratioP2
3074;SDS011;1548;51.716;8.748;2022-12-01T00:01:12;16.20;;;3.97;;
3074;SDS011;1548;51.716;8.748;2022-12-01T00:03:38;26.47;;;7.53;;
3074;SDS011;1548;51.716;8.748;2022-12-01T00:06:05;26.70;;;9.00;;
3074;SDS011;1548;51.716;8.748;2022-12-01T00:08:39;252.20;;;52.47;;
3074;SDS011;1548;51.716;8.748;2022-12-01T00:11:26;321.33;;;64.37;;
3074;SDS011;1548;51.716;8.748;2022-12-01T00:13:51;255.97;;;55.40;;
3074;SDS011;1548;51.716;8.748;2022-12-01T00:16:17;260.50;;;53.23;;
3074;SDS011;1548;51.716;8.748;2022-12-01T00:18:43;432.93;;;81.43;;
3074;SDS011;1548;51.716;8.748;2022-12-01T00:21:15;480.73;;;84.50;;
3074;SDS011;1548;51.716;8.748;2022-12-01T00:23:42;391.80;;;75.30;;
3074;SDS011;1548;51.716;8.748;2022-12-01T00:26:12;482.47;;;95.90;;
3074;SDS011;1548;51.716;8.748;2022-12-01T00:28:38;477.17;;;94.43;;
3074;SDS011;1548;51.716;8.748;2022-12-01T00:31:08;368.03;;;74.30;;
3074;SDS011;1548;51.716;8.748;2022-12-01T00:33:34;400.07;;;80.90;;
3074;SDS011;1548;51.716;8.748;2022-12-01T00:36:00;367.90;;;70.47;;
3074;SDS011;1548;51.716;8.748;2022-12-01T00:38:26;498.73;;;104.20;;
3074;SDS011;1548;51.716;8.748;2022-12-01T00:40:52;385.67;;;72.73;;
3074;SDS011;1548;51.716;8.748;2022-12-01T00:43:18;473.33;;;91.00;;
3074;SDS011;1548;51.716;8.748;2022-12-01T00:45:44;369.63;;;72.60;;
3074;SDS011;1548;51.716;8.748;2022-12-01T00:48:09;482.40;;;95.07;;
3074;SDS011;1548;51.716;8.748;2022-12-01T00:50:35;389.20;;;75.57;;
3074;SDS011;1548;51.716;8.748;2022-12-01T00:53:00;29.13;;;8.07;;
3074;SDS011;1548;51.716;8.748;2022-12-01T00:55:26;23.37;;;6.43;;
3074;SDS011;1548;51.716;8.748;2022-12-01T00:57:52;15.30;;;3.20;;
3074;SDS011;1548;51.716;8.748;2022-12-01T01:00:17;22.87;;;4.53;;
3074;SDS011;1548;51.716;8.748;2022-12-01T01:02:43;19.73;;;5.47;;
3074;SDS011;1548;51.716;8.748;2022-12-01T01:05:08;22.07;;;7.20;;
3074;SDS011;1548;51.716;8.748;2022-12-01T01:07:34;16.63;;;3.63;;
3074;SDS011;1548;51.716;8.748;2022-12-01T01:10:00;18.27;;;6.10;;
3074;SDS011;1548;51.716;8.748;2022-12-01T01:12:26;23.70;;;6.50;;
3074;SDS011;1548;51.716;8.748;2022-12-01T01:14:52;27.17;;;8.03;;
3074;SDS011;1548;51.716;8.748;2022-12-01T01:17:18;26.67;;;6.63;;
3074;SDS011;1548;51.716;8.748;2022-12-01T01:19:44;18.50;;;5.13;;
3074;SDS011;1548;51.716;8.748;2022-12-01T01:22:09;248.57;;;48.33;;
3074;SDS011;1548;51.716;8.748;2022-12-01T01:24:35;263.60;;;49.67;;
3074;SDS011;1548;51.716;8.748;2022-12-01T01:27:01;409.57;;;78.80;;
3074;SDS011;1548;51.716;8.748;2022-12-01T01:29:27;330.73;;;62.33;;
3074;SDS011;1548;51.716;8.748;2022-12-01T01:31:52;406.33;;;81.27;;
3074;SDS011;1548;51.716;8.748;2022-12-01T01:34:18;348.17;;;65.80;;
3074;SDS011;1548;51.716;8.748;2022-12-01T01:36:43;439.13;;;82.97;;
3074;SDS011;1548;51.716;8.748;2022-12-01T01:39:09;460.43;;;92.07;;
3074;SDS011;1548;51.716;8.748;2022-12-01T01:41:35;362.83;;;66.60;;
3074;SDS011;1548;51.716;8.748;2022-12-01T01:44:01;463.17;;;94.33;;
3074;SDS011;1548;51.716;8.748;2022-12-01T01:46:28;463.67;;;89.93;;
3074;SDS011;1548;51.716;8.748;2022-12-01T01:48:59;22.37;;;6.90;;
3074;SDS011;1548;51.716;8.748;2022-12-01T01:54:03;18.03;;;6.13;;
3074;SDS011;1548;51.716;8.748;2022-12-01T01:56:33;17.87;;;3.97;;
3074;SDS011;1548;51.716;8.748;2022-12-01T01:59:00;21.27;;;7.37;;
3074;SDS011;1548;51.716;8.748;2022-12-01T02:01:27;27.07;;;8.70;;
3074;SDS011;1548;51.716;8.748;2022-12-01T02:03:53;36.77;;;8.00;;
3074;SDS011;1548;51.716;8.748;2022-12-01T02:06:20;12.93;;;6.30;;
3074;SDS011;1548;51.716;8.748;2022-12-01T02:08:46;285.93;;;59.57;;
3074;SDS011;1548;51.716;8.748;2022-12-01T02:11:16;445.23;;;86.33;;
3074;SDS011;1548;51.716;8.748;2022-12-01T02:30:57;357.23;;;72.40;;
3074;SDS011;1548;51.716;8.748;2022-12-01T02:33:41;471.07;;;92.90;;
3074;SDS011;1548;51.716;8.748;2022-12-01T02:36:56;26.07;;;9.00;;
3074;SDS011;1548;51.716;8.748;2022-12-01T02:39:19;18.87;;;3.93;;
3074;SDS011;1548;51.716;8.748;2022-12-01T02:42:10;24.97;;;7.03;;
3074;SDS011;1548;51.716;8.748;2022-12-01T02:45:04;338.33;;;66.90;;
3074;SDS011;1548;51.716;8.748;2022-12-01T02:47:34;466.20;;;95.20;;
3074;SDS011;1548;51.716;8.748;2022-12-01T02:50:02;29.27;;;9.57;;
3074;SDS011;1548;51.716;8.748;2022-12-01T02:52:28;18.37;;;7.00;;
3074;SDS011;1548;51.716;8.748;2022-12-01T02:54:55;48.20;;;11.83;;
3074;SDS011;1548;51.716;8.748;2022-12-01T02:57:21;330.37;;;67.17;;
3074;SDS011;1548;51.716;8.748;2022-12-01T02:59:49;336.03;;;66.90;;
3074;SDS011;1548;51.716;8.748;2022-12-01T03:15:29;55.90;;;8.83;;
3074;SDS011;1548;51.716;8.748;2022-12-01T03:18:03;272.27;;;54.33;;
3074;SDS011;1548;51.716;8.748;2022-12-01T03:20:35;276.47;;;54.07;;
3074;SDS011;1548;51.716;8.748;2022-12-01T03:23:11;338.27;;;66.30;;
3074;SDS011;1548;51.716;8.748;2022-12-01T03:25:42;454.37;;;88.53;;
3074;SDS011;1548;51.716;8.748;2022-12-01T03:28:12;452.30;;;85.63;;
3074;SDS011;1548;51.716;8.748;2022-12-01T03:30:41;368.53;;;74.13;;
3074;SDS011;1548;51.716;8.748;2022-12-01T03:33:09;182.83;;;38.40;;
3074;SDS011;1548;51.716;8.748;2022-12-01T03:35:47;366.13;;;71.43;;
3074;SDS011;1548;51.716;8.748;2022-12-01T03:38:23;392.70;;;79.57;;
3074;SDS011;1548;51.716;8.748;2022-12-01T03:40:50;344.37;;;67.67;;
3074;SDS011;1548;51.716;8.748;2022-12-01T03:43:22;457.57;;;90.10;;
3074;SDS011;1548;51.716;8.748;2022-12-01T03:45:57;449.70;;;84.80;;
3074;SDS011;1548;51.716;8.748;2022-12-01T03:48:31;449.83;;;91.13;;
3074;SDS011;1548;51.716;8.748;2022-12-01T03:56:20;433.33;;;86.73;;
3074;SDS011;1548;51.716;8.748;2022-12-01T03:58:49;409.87;;;82.27;;
3074;SDS011;1548;51.716;8.748;2022-12-01T04:01:20;357.60;;;69.87;;
3074;SDS011;1548;51.716;8.748;2022-12-01T04:03:46;450.50;;;88.47;;
3074;SDS011;1548;51.716;8.748;2022-12-01T04:06:12;437.13;;;86.13;;
3074;SDS011;1548;51.716;8.748;2022-12-01T04:08:38;466.27;;;94.93;;
3074;SDS011;1548;51.716;8.748;2022-12-01T04:11:04;351.83;;;72.07;;
3074;SDS011;1548;51.716;8.748;2022-12-01T04:13:49;460.93;;;88.90;;
3074;SDS011;1548;51.716;8.748;2022-12-01T04:16:15;354.93;;;71.17;;
3074;SDS011;1548;51.716;8.748;2022-12-01T04:18:40;378.63;;;78.07;;
3074;SDS011;1548;51.716;8.748;2022-12-01T04:21:06;458.33;;;91.67;;
3074;SDS011;1548;51.716;8.748;2022-12-01T04:23:32;339.07;;;67.83;;
3074;SDS011;1548;51.716;8.748;2022-12-01T04:26:16;475.33;;;97.60;;
3074;SDS011;1548;51.716;8.748;2022-12-01T04:28:42;353.37;;;68.97;;
3074;SDS011;1548;51.716;8.748;2022-12-01T04:31:07;515.57;;;99.10;;
3074;SDS011;1548;51.716;8.748;2022-12-01T04:33:33;363.30;;;70.83;;
3074;SDS011;1548;51.716;8.748;2022-12-01T04:35:58;449.70;;;91.27;;
3074;SDS011;1548;51.716;8.748;2022-12-01T04:38:24;465.37;;;92.97;;
3074;SDS011;1548;51.716;8.748;2022-12-01T04:40:50;51.70;;;12.73;;
3074;SDS011;1548;51.716;8.748;2022-12-01T04:43:16;282.00;;;60.33;;
3074;SDS011;1548;51.716;8.748;2022-12-01T04:45:42;316.13;;;67.10;;
3074;SDS011;1548;51.716;8.748;2022-12-01T04:48:07;263.20;;;50.10;;
3074;SDS011;1548;51.716;8.748;2022-12-01T04:50:33;370.93;;;72.00;;
3074;SDS011;1548;51.716;8.748;2022-12-01T04:52:58;272.17;;;55.03;;
3074;SDS011;1548;51.716;8.748;2022-12-01T04:55:24;350.07;;;71.53;;
3074;SDS011;1548;51.716;8.748;2022-12-01T04:57:50;465.90;;;99.33;;
3074;SDS011;1548;51.716;8.748;2022-12-01T05:00:15;377.40;;;76.60;;
3074;SDS011;1548;51.716;8.748;2022-12-01T05:02:42;338.40;;;67.60;;
3074;SDS011;1548;51.716;8.748;2022-12-01T05:05:11;389.00;;;79.43;;
3074;SDS011;1548;51.716;8.748;2022-12-01T05:07:38;18.87;;;4.87;;
3074;SDS011;1548;51.716;8.748;2022-12-01T05:10:04;29.83;;;18.20;;
3074;SDS011;1548;51.716;8.748;2022-12-01T05:12:30;35.87;;;7.40;;
3074;SDS011;1548;51.716;8.748;2022-12-01T05:14:58;26.40;;;12.17;;
3074;SDS011;1548;51.716;8.748;2022-12-01T05:17:24;363.73;;;78.90;;
3074;SDS011;1548;51.716;8.748;2022-12-01T05:19:49;28.80;;;10.70;;
3074;SDS011;1548;51.716;8.748;2022-12-01T05:22:34;22.70;;;7.20;;
3074;SDS011;1548;51.716;8.748;2022-12-01T05:24:59;19.73;;;5.73;;
3074;SDS011;1548;51.716;8.748;2022-12-01T05:27:25;18.80;;;5.23;;
3074;SDS011;1548;51.716;8.748;2022-12-01T05:29:51;18.80;;;5.27;;
3074;SDS011;1548;51.716;8.748;2022-12-01T05:32:16;32.77;;;12.83;;
3074;SDS011;1548;51.716;8.748;2022-12-01T05:34:42;35.10;;;12.07;;
3074;SDS011;1548;51.716;8.748;2022-12-01T05:37:08;25.13;;;9.23;;
3074;SDS011;1548;51.716;8.748;2022-12-01T05:39:34;39.90;;;13.33;;
3074;SDS011;1548;51.716;8.748;2022-12-01T05:41:59;24.10;;;9.67;;
3074;SDS011;1548;51.716;8.748;2022-12-01T05:44:25;23.60;;;8.63;;
3074;SDS011;1548;51.716;8.748;2022-12-01T05:46:50;34.17;;;12.03;;
3074;SDS011;1548;51.716;8.748;2022-12-01T05:49:16;38.93;;;12.83;;
3074;SDS011;1548;51.716;8.748;2022-12-01T05:51:42;52.40;;;19.10;;
3074;SDS011;1548;51.716;8.748;2022-12-01T05:54:08;22.50;;;7.13;;
3074;SDS011;1548;51.716;8.748;2022-12-01T05:56:34;36.17;;;10.60;;
3074;SDS011;1548;51.716;8.748;2022-12-01T05:58:59;25.00;;;7.50;;
3074;SDS011;1548;51.716;8.748;2022-12-01T06:01:25;53.50;;;16.80;;
3074;SDS011;1548;51.716;8.748;2022-12-01T06:03:51;260.10;;;53.90;;
3074;SDS011;1548;51.716;8.748;2022-12-01T06:06:17;459.33;;;94.03;;
3074;SDS011;1548;51.716;8.748;2022-12-01T06:08:43;443.13;;;92.33;;
3074;SDS011;1548;51.716;8.748;2022-12-01T06:11:08;346.80;;;71.23;;
3074;SDS011;1548;51.716;8.748;2022-12-01T06:13:34;282.60;;;63.67;;
3074;SDS011;1548;51.716;8.748;2022-12-01T06:16:00;435.30;;;88.37;;
3074;SDS011;1548;51.716;8.748;2022-12-01T06:18:31;373.47;;;80.80;;
3074;SDS011;1548;51.716;8.748;2022-12-01T06:20:59;331.40;;;69.37;;
3074;SDS011;1548;51.716;8.748;2022-12-01T06:23:25;374.40;;;79.00;;
3074;SDS011;1548;51.716;8.748;2022-12-01T06:25:50;346.80;;;70.87;;
3074;SDS011;1548;51.716;8.748;2022-12-01T06:28:16;372.27;;;82.23;;
3074;SDS011;1548;51.716;8.748;2022-12-01T06:30:42;36.77;;;11.30;;
3074;SDS011;1548;51.716;8.748;2022-12-01T06:33:08;99.37;;;29.40;;
3074;SDS011;1548;51.716;8.748;2022-12-01T06:35:34;52.53;;;14.13;;
3074;SDS011;1548;51.716;8.748;2022-12-01T06:38:00;47.30;;;13.37;;
3074;SDS011;1548;51.716;8.748;2022-12-01T06:40:26;51.60;;;15.67;;
3074;SDS011;1548;51.716;8.748;2022-12-01T06:42:52;49.03;;;15.37;;
3074;SDS011;1548;51.716;8.748;2022-12-01T06:45:17;64.23;;;18.20;;
3074;SDS011;1548;51.716;8.748;2022-12-01T06:47:43;85.53;;;21.80;;
3074;SDS011;1548;51.716;8.748;2022-12-01T06:50:11;251.30;;;57.10;;
3074;SDS011;1548;51.716;8.748;2022-12-01T06:52:36;283.43;;;60.33;;
3074;SDS011;1548;51.716;8.748;2022-12-01T06:55:02;295.63;;;68.00;;
3074;SDS011;1548;51.716;8.748;2022-12-01T06:57:29;119.33;;;24.37;;
3074;SDS011;1548;51.716;8.748;2022-12-01T06:59:55;330.07;;;67.67;;
3074;SDS011;1548;51.716;8.748;2022-12-01T07:02:21;50.17;;;9.57;;
3074;SDS011;1548;51.716;8.748;2022-12-01T07:04:46;24.17;;;8.37;;
3074;SDS011;1548;51.716;8.748;2022-12-01T07:07:12;247.70;;;52.23;;
3074;SDS011;1548;51.716;8.748;2022-12-01T07:09:38;262.73;;;55.30;;
3074;SDS011;1548;51.716;8.748;2022-12-01T07:12:03;355.47;;;76.93;;
3074;SDS011;1548;51.716;8.748;2022-12-01T07:14:29;440.60;;;91.90;;
3074;SDS011;1548;51.716;8.748;2022-12-01T07:16:56;444.23;;;89.70;;
3074;SDS011;1548;51.716;8.748;2022-12-01T07:19:22;359.13;;;78.60;;
3074;SDS011;1548;51.716;8.748;2022-12-01T07:21:48;466.57;;;102.70;;
3074;SDS011;1548;51.716;8.748;2022-12-01T07:24:13;447.33;;;100.60;;
3074;SDS011;1548;51.716;8.748;2022-12-01T07:26:39;330.23;;;72.20;;
3074;SDS011;1548;51.716;8.748;2022-12-01T07:29:05;315.83;;;69.80;;
3074;SDS011;1548;51.716;8.748;2022-12-01T07:31:32;333.57;;;72.83;;
3074;SDS011;1548;51.716;8.748;2022-12-01T07:33:58;428.77;;;87.63;;
3074;SDS011;1548;51.716;8.748;2022-12-01T07:36:24;346.70;;;71.47;;
3074;SDS011;1548;51.716;8.748;2022-12-01T07:38:50;18.10;;;5.13;;
3074;SDS011;1548;51.716;8.748;2022-12-01T07:41:17;42.33;;;13.03;;
3074;SDS011;1548;51.716;8.748;2022-12-01T07:43:43;247.80;;;52.30;;
3074;SDS011;1548;51.716;8.748;2022-12-01T07:46:11;449.17;;;92.00;;
3074;SDS011;1548;51.716;8.748;2022-12-01T07:48:41;442.70;;;93.90;;
3074;SDS011;1548;51.716;8.748;2022-12-01T07:51:07;373.50;;;80.97;;
3074;SDS011;1548;51.716;8.748;2022-12-01T07:53:34;316.57;;;66.03;;
3074;SDS011;1548;51.716;8.748;2022-12-01T07:56:00;386.20;;;87.50;;
3074;SDS011;1548;51.716;8.748;2022-12-01T07:58:26;239.97;;;51.27;;
3074;SDS011;1548;51.716;8.748;2022-12-01T08:00:52;299.70;;;64.33;;
3074;SDS011;1548;51.716;8.748;2022-12-01T08:03:18;293.90;;;64.60;;
3074;SDS011;1548;51.716;8.748;2022-12-01T08:05:44;336.33;;;74.83;;
3074;SDS011;1548;51.716;8.748;2022-12-01T08:08:10;311.13;;;67.97;;
3074;SDS011;1548;51.716;8.748;2022-12-01T08:10:36;284.67;;;56.20;;
3074;SDS011;1548;51.716;8.748;2022-12-01T08:13:01;354.07;;;80.03;;
3074;SDS011;1548;51.716;8.748;2022-12-01T08:15:27;402.57;;;85.77;;
3074;SDS011;1548;51.716;8.748;2022-12-01T08:17:53;17.70;;;7.50;;
3074;SDS011;1548;51.716;8.748;2022-12-01T08:20:19;337.77;;;81.93;;
3074;SDS011;1548;51.716;8.748;2022-12-01T08:22:45;332.10;;;76.67;;
3074;SDS011;1548;51.716;8.748;2022-12-01T08:25:11;335.93;;;74.17;;
3074;SDS011;1548;51.716;8.748;2022-12-01T08:27:36;406.13;;;84.53;;
3074;SDS011;1548;51.716;8.748;2022-12-01T08:30:02;398.43;;;83.27;;
3074;SDS011;1548;51.716;8.748;2022-12-01T08:32:28;375.13;;;80.13;;
3074;SDS011;1548;51.716;8.748;2022-12-01T08:34:54;324.27;;;70.20;;
3074;SDS011;1548;51.716;8.748;2022-12-01T08:37:20;376.60;;;85.23;;
3074;SDS011;1548;51.716;8.748;2022-12-01T08:39:45;301.47;;;73.43;;
3074;SDS011;1548;51.716;8.748;2022-12-01T08:42:11;337.73;;;78.97;;
3074;SDS011;1548;51.716;8.748;2022-12-01T08:44:37;217.73;;;55.37;;
3074;SDS011;1548;51.716;8.748;2022-12-01T08:47:02;277.90;;;63.80;;
3074;SDS011;1548;51.716;8.748;2022-12-01T08:49:28;276.50;;;69.10;;
3074;SDS011;1548;51.716;8.748;2022-12-01T08:51:54;317.60;;;70.67;;
3074;SDS011;1548;51.716;8.748;2022-12-01T08:54:20;293.90;;;67.77;;
3074;SDS011;1548;51.716;8.748;2022-12-01T08:56:47;357.47;;;75.77;;
3074;SDS011;1548;51.716;8.748;2022-12-01T08:59:12;420.13;;;90.47;;
3074;SDS011;1548;51.716;8.748;2022-12-01T09:01:38;421.70;;;92.33;;
3074;SDS011;1548;51.716;8.748;2022-12-01T09:04:17;391.57;;;78.90;;
3074;SDS011;1548;51.716;8.748;2022-12-01T09:06:48;296.80;;;61.80;;
3074;SDS011;1548;51.716;8.748;2022-12-01T09:09:15;327.80;;;68.40;;
3074;SDS011;1548;51.716;8.748;2022-12-01T09:11:43;284.80;;;64.13;;
3074;SDS011;1548;51.716;8.748;2022-12-01T09:14:09;293.57;;;62.27;;
3074;SDS011;1548;51.716;8.748;2022-12-01T09:16:41;303.90;;;62.90;;
3074;SDS011;1548;51.716;8.748;2022-12-01T09:19:08;396.57;;;88.57;;
3074;SDS011;1548;51.716;8.748;2022-12-01T09:21:34;248.80;;;52.67;;
3074;SDS011;1548;51.716;8.748;2022-12-01T09:24:04;404.07;;;85.00;;
3074;SDS011;1548;51.716;8.748;2022-12-01T09:26:31;403.50;;;82.77;;
3074;SDS011;1548;51.716;8.748;2022-12-01T09:28:59;257.93;;;52.57;;
3074;SDS011;1548;51.716;8.748;2022-12-01T09:31:32;344.80;;;76.37;;
3074;SDS011;1548;51.716;8.748;2022-12-01T09:34:00;392.10;;;85.43;;
3074;SDS011;1548;51.716;8.748;2022-12-01T09:36:28;334.67;;;78.50;;
3074;SDS011;1548;51.716;8.748;2022-12-01T09:38:55;337.77;;;81.07;;
3074;SDS011;1548;51.716;8.748;2022-12-01T09:41:23;325.07;;;74.73;;
3074;SDS011;1548;51.716;8.748;2022-12-01T09:49:23;351.70;;;77.77;;
3074;SDS011;1548;51.716;8.748;2022-12-01T09:51:53;307.87;;;64.40;;
3074;SDS011;1548;51.716;8.748;2022-12-01T09:54:19;320.90;;;76.00;;
3074;SDS011;1548;51.716;8.748;2022-12-01T09:56:46;303.80;;;68.43;;
3074;SDS011;1548;51.716;8.748;2022-12-01T09:59:24;190.90;;;45.53;;
3074;SDS011;1548;51.716;8.748;2022-12-01T10:01:56;292.23;;;64.13;;
3074;SDS011;1548;51.716;8.748;2022-12-01T10:07:02;272.43;;;56.53;;
3074;SDS011;1548;51.716;8.748;2022-12-01T10:09:51;404.20;;;80.10;;
3074;SDS011;1548;51.716;8.748;2022-12-01T10:12:18;282.60;;;59.23;;
3074;SDS011;1548;51.716;8.748;2022-12-01T10:14:47;270.80;;;62.00;;
3074;SDS011;1548;51.716;8.748;2022-12-01T10:20:18;324.10;;;70.37;;
3074;SDS011;1548;51.716;8.748;2022-12-01T10:26:30;348.47;;;71.47;;
3074;SDS011;1548;51.716;8.748;2022-12-01T10:31:17;270.37;;;59.87;;
3074;SDS011;1548;51.716;8.748;2022-12-01T10:34:07;350.13;;;75.07;;
3074;SDS011;1548;51.716;8.748;2022-12-01T10:36:34;321.43;;;67.60;;
3074;SDS011;1548;51.716;8.748;2022-12-01T10:39:02;311.90;;;65.77;;
3074;SDS011;1548;51.716;8.748;2022-12-01T10:41:31;182.63;;;41.10;;
3074;SDS011;1548;51.716;8.748;2022-12-01T10:43:59;29.97;;;11.90;;
3074;SDS011;1548;51.716;8.748;2022-12-01T10:46:34;63.50;;;15.53;;
3074;SDS011;1548;51.716;8.748;2022-12-01T10:49:09;350.63;;;76.70;;
3074;SDS011;1548;51.716;8.748;2022-12-01T10:54:19;247.40;;;54.23;;
3074;SDS011;1548;51.716;8.748;2022-12-01T10:56:47;395.83;;;82.17;;
3074;SDS011;1548;51.716;8.748;2022-12-01T10:59:21;434.00;;;90.30;;
3074;SDS011;1548;51.716;8.748;2022-12-01T11:01:47;444.07;;;89.97;;
3074;SDS011;1548;51.716;8.748;2022-12-01T11:07:18;39.73;;;12.03;;
3074;SDS011;1548;51.716;8.748;2022-12-01T11:10:02;134.50;;;30.30;;
3074;SDS011;1548;51.716;8.748;2022-12-01T11:12:40;138.70;;;30.70;;
3074;SDS011;1548;51.716;8.748;2022-12-01T11:15:16;236.80;;;51.10;;
3074;SDS011;1548;51.716;8.748;2022-12-01T11:17:44;204.70;;;45.07;;
3074;SDS011;1548;51.716;8.748;2022-12-01T11:20:27;140.13;;;33.73;;
3074;SDS011;1548;51.716;8.748;2022-12-01T11:25:34;72.07;;;17.90;;
3074;SDS011;1548;51.716;8.748;2022-12-01T11:28:00;304.43;;;65.67;;
3074;SDS011;1548;51.716;8.748;2022-12-01T11:30:28;136.93;;;31.37;;
3074;SDS011;1548;51.716;8.748;2022-12-01T11:33:00;35.87;;;10.77;;
3074;SDS011;1548;51.716;8.748;2022-12-01T11:35:28;26.40;;;9.10;;
3074;SDS011;1548;51.716;8.748;2022-12-01T11:37:57;47.30;;;11.97;;
3074;SDS011;1548;51.716;8.748;2022-12-01T11:40:29;85.50;;;23.00;;
3074;SDS011;1548;51.716;8.748;2022-12-01T11:43:00;25.63;;;6.90;;
3074;SDS011;1548;51.716;8.748;2022-12-01T11:45:29;26.23;;;9.13;;
3074;SDS011;1548;51.716;8.748;2022-12-01T11:50:34;52.77;;;12.00;;
3074;SDS011;1548;51.716;8.748;2022-12-01T11:53:01;32.30;;;10.13;;
3074;SDS011;1548;51.716;8.748;2022-12-01T11:55:28;47.23;;;14.80;;
3074;SDS011;1548;51.716;8.748;2022-12-01T11:57:59;34.03;;;11.87;;
3074;SDS011;1548;51.716;8.748;2022-12-01T12:00:28;39.70;;;13.50;;
3074;SDS011;1548;51.716;8.748;2022-12-01T12:08:47;267.13;;;61.60;;
3074;SDS011;1548;51.716;8.748;2022-12-01T12:11:58;301.50;;;63.83;;
3074;SDS011;1548;51.716;8.748;2022-12-01T12:14:37;327.07;;;66.17;;
3074;SDS011;1548;51.716;8.748;2022-12-01T12:17:11;452.63;;;89.90;;
3074;SDS011;1548;51.716;8.748;2022-12-01T12:25:21;312.97;;;67.97;;
3074;SDS011;1548;51.716;8.748;2022-12-01T12:28:03;308.33;;;69.07;;
3074;SDS011;1548;51.716;8.748;2022-12-01T12:30:42;329.20;;;70.87;;
3074;SDS011;1548;51.716;8.748;2022-12-01T12:38:44;339.43;;;73.20;;
3074;SDS011;1548;51.716;8.748;2022-12-01T12:41:45;284.10;;;65.40;;
3074;SDS011;1548;51.716;8.748;2022-12-01T12:52:12;325.20;;;68.93;;
3074;SDS011;1548;51.716;8.748;2022-12-01T12:57:21;253.40;;;55.13;;
3074;SDS011;1548;51.716;8.748;2022-12-01T13:05:44;237.60;;;51.97;;
3074;SDS011;1548;51.716;8.748;2022-12-01T13:10:51;387.07;;;79.57;;
3074;SDS011;1548;51.716;8.748;2022-12-01T13:13:31;251.77;;;56.20;;
3074;SDS011;1548;51.716;8.748;2022-12-01T13:16:05;50.57;;;11.97;;
3074;SDS011;1548;51.716;8.748;2022-12-01T13:18:55;53.50;;;11.50;;
3074;SDS011;1548;51.716;8.748;2022-12-01T13:21:30;94.87;;;21.90;;
3074;SDS011;1548;51.716;8.748;2022-12-01T13:24:01;303.33;;;65.30;;
3074;SDS011;1548;51.716;8.748;2022-12-01T13:26:28;70.17;;;14.80;;
3074;SDS011;1548;51.716;8.748;2022-12-01T13:28:54;53.63;;;16.73;;
3074;SDS011;1548;51.716;8.748;2022-12-01T13:31:21;88.10;;;22.83;;
3074;SDS011;1548;51.716;8.748;2022-12-01T13:33:57;99.07;;;24.57;;
3074;SDS011;1548;51.716;8.748;2022-12-01T13:36:26;264.20;;;62.40;;
3074;SDS011;1548;51.716;8.748;2022-12-01T13:39:03;323.63;;;70.33;;
3074;SDS011;1548;51.716;8.748;2022-12-01T13:41:34;317.00;;;72.10;;
3074;SDS011;1548;51.716;8.748;2022-12-01T13:44:21;223.77;;;47.97;;
3074;SDS011;1548;51.716;8.748;2022-12-01T14:08:26;149.77;;;36.83;;
3074;SDS011;1548;51.716;8.748;2022-12-01T14:11:24;278.77;;;61.90;;
3074;SDS011;1548;51.716;8.748;2022-12-01T14:13:53;16.13;;;5.53;;
3074;SDS011;1548;51.716;8.748;2022-12-01T14:16:22;234.27;;;52.70;;
3074;SDS011;1548;51.716;8.748;2022-12-01T14:18:53;370.07;;;80.93;;
3074;SDS011;1548;51.716;8.748;2022-12-01T14:22:02;193.13;;;42.17;;
3074;SDS011;1548;51.716;8.748;2022-12-01T14:24:22;161.63;;;37.73;;
3074;SDS011;1548;51.716;8.748;2022-12-01T14:26:52;91.80;;;18.47;;
3074;SDS011;1548;51.716;8.748;2022-12-01T14:34:21;109.60;;;26.37;;
3074;SDS011;1548;51.716;8.748;2022-12-01T14:39:19;161.73;;;37.57;;
3074;SDS011;1548;51.716;8.748;2022-12-01T14:41:52;292.67;;;72.33;;
3074;SDS011;1548;51.716;8.748;2022-12-01T14:44:25;243.17;;;56.80;;
3074;SDS011;1548;51.716;8.748;2022-12-01T14:46:53;287.43;;;64.03;;
3074;SDS011;1548;51.716;8.748;2022-12-01T14:49:30;320.43;;;74.47;;
3074;SDS011;1548;51.716;8.748;2022-12-01T14:52:08;256.20;;;51.60;;
3074;SDS011;1548;51.716;8.748;2022-12-01T14:54:48;267.23;;;59.43;;
3074;SDS011;1548;51.716;8.748;2022-12-01T14:57:16;231.30;;;50.50;;
3074;SDS011;1548;51.716;8.748;2022-12-01T14:59:49;106.07;;;30.90;;
3074;SDS011;1548;51.716;8.748;2022-12-01T15:02:30;173.33;;;36.30;;
3074;SDS011;1548;51.716;8.748;2022-12-01T15:07:36;282.87;;;63.87;;
3074;SDS011;1548;51.716;8.748;2022-12-01T15:12:41;31.87;;;10.77;;
3074;SDS011;1548;51.716;8.748;2022-12-01T15:15:16;226.90;;;52.03;;
3074;SDS011;1548;51.716;8.748;2022-12-01T15:17:46;253.27;;;58.27;;
3074;SDS011;1548;51.716;8.748;2022-12-01T15:23:01;265.90;;;58.10;;
3074;SDS011;1548;51.716;8.748;2022-12-01T15:25:36;77.43;;;16.93;;
3074;SDS011;1548;51.716;8.748;2022-12-01T15:28:12;258.70;;;52.03;;
3074;SDS011;1548;51.716;8.748;2022-12-01T15:30:40;263.73;;;55.87;;
3074;SDS011;1548;51.716;8.748;2022-12-01T15:33:21;262.10;;;59.63;;
3074;SDS011;1548;51.716;8.748;2022-12-01T15:35:50;107.60;;;23.60;;
3074;SDS011;1548;51.716;8.748;2022-12-01T15:38:18;239.70;;;54.37;;
3074;SDS011;1548;51.716;8.748;2022-12-01T15:40:47;161.50;;;33.77;;
3074;SDS011;1548;51.716;8.748;2022-12-01T15:45:52;227.40;;;52.30;;
3074;SDS011;1548;51.716;8.748;2022-12-01T15:48:25;261.30;;;52.37;;
3074;SDS011;1548;51.716;8.748;2022-12-01T15:51:07;187.70;;;40.40;;
3074;SDS011;1548;51.716;8.748;2022-12-01T15:53:39;305.23;;;70.53;;
3074;SDS011;1548;51.716;8.748;2022-12-01T15:56:11;246.00;;;55.80;;
3074;SDS011;1548;51.716;8.748;2022-12-01T15:58:41;46.67;;;14.53;;
3074;SDS011;1548;51.716;8.748;2022-12-01T16:01:13;141.73;;;28.83;;
3074;SDS011;1548;51.716;8.748;2022-12-01T16:04:00;180.87;;;39.43;;
3074;SDS011;1548;51.716;8.748;2022-12-01T16:06:29;176.27;;;37.47;;
3074;SDS011;1548;51.716;8.748;2022-12-01T16:08:59;323.07;;;66.33;;
3074;SDS011;1548;51.716;8.748;2022-12-01T16:14:31;296.83;;;62.43;;
3074;SDS011;1548;51.716;8.748;2022-12-01T16:16:58;107.90;;;27.77;;
3074;SDS011;1548;51.716;8.748;2022-12-01T16:19:25;181.13;;;40.63;;
3074;SDS011;1548;51.716;8.748;2022-12-01T16:24:31;240.50;;;53.63;;
3074;SDS011;1548;51.716;8.748;2022-12-01T16:29:25;305.17;;;67.90;;
3074;SDS011;1548;51.716;8.748;2022-12-01T16:31:52;397.13;;;82.60;;
3074;SDS011;1548;51.716;8.748;2022-12-01T16:34:21;144.30;;;31.37;;
3074;SDS011;1548;51.716;8.748;2022-12-01T16:36:47;234.30;;;54.53;;
3074;SDS011;1548;51.716;8.748;2022-12-01T16:39:13;391.63;;;80.53;;
3074;SDS011;1548;51.716;8.748;2022-12-01T16:41:39;384.87;;;82.97;;
3074;SDS011;1548;51.716;8.748;2022-12-01T16:44:11;158.80;;;36.07;;
3074;SDS011;1548;51.716;8.748;2022-12-01T16:46:38;224.90;;;48.20;;
3074;SDS011;1548;51.716;8.748;2022-12-01T16:49:04;303.50;;;62.83;;
3074;SDS011;1548;51.716;8.748;2022-12-01T16:51:31;326.37;;;69.13;;
3074;SDS011;1548;51.716;8.748;2022-12-01T16:53:57;170.77;;;36.83;;
3074;SDS011;1548;51.716;8.748;2022-12-01T16:56:23;219.80;;;46.60;;
3074;SDS011;1548;51.716;8.748;2022-12-01T16:58:49;509.23;;;218.77;;
3074;SDS011;1548;51.716;8.748;2022-12-01T17:01:14;460.20;;;142.00;;
3074;SDS011;1548;51.716;8.748;2022-12-01T17:03:40;168.80;;;40.50;;
3074;SDS011;1548;51.716;8.748;2022-12-01T17:06:06;220.67;;;54.43;;
3074;SDS011;1548;51.716;8.748;2022-12-01T17:08:32;464.67;;;151.20;;
3074;SDS011;1548;51.716;8.748;2022-12-01T17:10:58;221.30;;;50.60;;
3074;SDS011;1548;51.716;8.748;2022-12-01T17:13:24;481.77;;;221.93;;
3074;SDS011;1548;51.716;8.748;2022-12-01T17:15:51;172.70;;;41.53;;
3074;SDS011;1548;51.716;8.748;2022-12-01T17:18:18;244.63;;;51.53;;
3074;SDS011;1548;51.716;8.748;2022-12-01T17:20:45;243.27;;;51.30;;